Time;durP1;ratioP1;P1;durP2;ratioP2;P2;SDS_P1;SDS_P2;PMS_P1;PMS_P2;Temp;Humidity;BMP_temperature;BMP_pressure;BME280_temperature;BME280_humidity;BME280_pressure;Samples;Min_cycle;Max_cycle;Signal;HPM_P1;HPM_P2
2022/08/26 00:01:18;;;;;;;13.23;9.82;;;;;;;18.25;nan;100882.47;4928819;29;20046;-79
2022/08/26 00:03:45;;;;;;;13.90;10.13;;;;;;;18.29;nan;100878.69;4949875;29;20046;-79
2022/08/26 00:06:13;;;;;;;14.60;10.45;;;;;;;18.30;nan;100876.88;4931467;29;20113;-79
2022/08/26 00:08:42;;;;;;;13.25;9.52;;;;;;;18.28;nan;100876.94;4933288;29;20046;-78
2022/08/26 00:11:12;;;;;;;10.30;9.02;;;;;;;18.27;nan;100882.38;4941967;29;20040;-79
2022/08/26 00:13:41;;;;;;;10.30;8.90;;;;;;;18.24;nan;100878.06;4946868;28;20122;-79
2022/08/26 00:16:15;;;;;;;11.88;10.35;;;;;;;18.24;nan;100872.72;4932341;29;20039;-79
2022/08/26 00:18:42;;;;;;;11.52;9.98;;;;;;;18.23;nan;100870.94;4937089;29;20066;-80
2022/08/26 00:21:09;;;;;;;11.57;9.95;;;;;;;18.21;nan;100877.31;4935315;29;20489;-80
2022/08/26 00:23:36;;;;;;;14.02;9.32;;;;;;;18.19;nan;100872.06;4939172;29;20713;-81
2022/08/26 00:26:04;;;;;;;11.57;9.50;;;;;;;18.16;nan;100861.53;4933341;29;20070;-81
2022/08/26 00:28:32;;;;;;;13.50;10.20;;;;;;;18.16;nan;100866.88;4954227;29;20574;-79
2022/08/26 00:30:59;;;;;;;12.77;10.48;;;;;;;18.16;nan;100869.53;4938190;29;20055;-79
2022/08/26 00:33:26;;;;;;;12.45;10.15;;;;;;;18.14;nan;100866.06;4936009;29;20042;-81
2022/08/26 00:35:53;;;;;;;14.35;10.50;;;;;;;18.18;nan;100873.00;4940658;29;20047;-80
2022/08/26 00:38:21;;;;;;;13.55;10.13;;;;;;;18.15;nan;100862.44;4950785;28;20036;-80
2022/08/26 00:40:52;;;;;;;14.45;11.10;;;;;;;18.16;nan;100864.19;5040386;23;20054;-77
2022/08/26 00:43:20;;;;;;;17.63;12.30;;;;;;;18.23;nan;100854.03;4922203;29;20538;-79
2022/08/26 00:45:55;;;;;;;15.07;10.18;;;;;;;18.18;nan;100851.59;4927838;29;20508;-79
2022/08/26 00:48:25;;;;;;;10.85;9.55;;;;;;;18.18;nan;100845.41;4927045;29;20048;-79
2022/08/26 00:50:59;;;;;;;12.93;10.10;;;;;;;18.18;nan;100848.94;4930676;29;20047;-77
2022/08/26 00:53:29;;;;;;;17.20;12.02;;;;;;;18.27;nan;100851.16;4931944;29;20036;-80
2022/08/26 00:56:03;;;;;;;15.25;11.57;;;;;;;18.31;nan;100857.19;4929676;29;20065;-79
2022/08/26 00:58:31;;;;;;;12.75;10.50;;;;;;;18.28;nan;100849.34;4932788;29;20416;-79
2022/08/26 01:00:58;;;;;;;14.07;11.18;;;;;;;18.21;nan;100853.25;4928710;29;20052;-80
2022/08/26 01:03:27;;;;;;;13.13;11.23;;;;;;;18.17;nan;100849.88;4933188;29;20036;-79
2022/08/26 01:05:56;;;;;;;14.02;10.98;;;;;;;18.16;nan;100840.13;4915666;29;20050;-80
2022/08/26 01:08:23;;;;;;;13.65;10.95;;;;;;;18.13;nan;100839.38;4910362;29;20050;-79
2022/08/26 01:10:52;;;;;;;16.88;12.07;;;;;;;18.14;nan;100841.13;4929535;29;20047;-80
2022/08/26 01:13:20;;;;;;;15.48;11.52;;;;;;;18.11;nan;100847.50;4916678;29;20485;-79
2022/08/26 01:15:53;;;;;;;13.05;10.35;;;;;;;18.08;nan;100847.66;4923632;29;20498;-79
2022/08/26 01:18:21;;;;;;;13.73;10.90;;;;;;;18.06;nan;100841.50;4929330;29;20047;-79
2022/08/26 01:20:56;;;;;;;15.27;11.35;;;;;;;18.06;nan;100837.94;4930075;29;20054;-79
2022/08/26 01:23:26;;;;;;;18.33;11.63;;;;;;;18.05;nan;100834.41;4911959;29;20042;-79
2022/08/26 01:25:56;;;;;;;13.02;11.18;;;;;;;18.03;nan;100844.31;4921704;29;20053;-79
2022/08/26 01:28:28;;;;;;;12.88;10.82;;;;;;;17.97;nan;100844.59;4930436;29;20047;-79
2022/08/26 01:30:55;;;;;;;14.90;11.32;;;;;;;17.95;nan;100844.69;4931975;29;20973;-79
2022/08/26 01:33:27;;;;;;;14.13;10.52;;;;;;;17.93;nan;100843.91;4931527;29;20040;-79
2022/08/26 01:35:54;;;;;;;14.90;10.57;;;;;;;17.91;nan;100843.13;4928955;29;20050;-79
2022/08/26 01:38:21;;;;;;;13.60;11.00;;;;;;;17.90;nan;100840.50;4922165;29;20039;-78
2022/08/26 01:40:50;;;;;;;17.02;11.23;;;;;;;17.88;nan;100842.38;4924124;29;20043;-79
2022/08/26 01:43:22;;;;;;;13.13;11.25;;;;;;;17.86;nan;100842.47;4929831;29;20052;-79
2022/08/26 01:45:50;;;;;;;14.05;11.38;;;;;;;17.84;nan;100838.13;4910957;29;20048;-79
2022/08/26 01:48:21;;;;;;;13.15;11.35;;;;;;;17.84;nan;100838.13;4924918;29;20043;-78
2022/08/26 01:50:49;;;;;;;16.30;10.80;;;;;;;17.86;nan;100838.94;4927885;29;20044;-79
2022/08/26 01:53:17;;;;;;;12.85;10.45;;;;;;;17.83;nan;100831.94;4923913;29;20050;-78
2022/08/26 01:55:48;;;;;;;13.80;10.77;;;;;;;17.79;nan;100835.66;4925740;29;20061;-79
2022/08/26 01:58:20;;;;;;;13.50;10.57;;;;;;;17.78;nan;100833.06;4915209;29;20036;-79
2022/08/26 02:00:47;;;;;;;14.15;11.52;;;;;;;17.77;nan;100828.69;4928588;29;20784;-78
2022/08/26 02:03:15;;;;;;;14.20;11.32;;;;;;;17.74;nan;100829.69;4930616;29;20036;-79
2022/08/26 02:05:52;;;;;;;11.90;10.52;;;;;;;17.72;nan;100832.41;4923136;29;20043;-79
2022/08/26 02:08:25;;;;;;;15.13;11.50;;;;;;;17.70;nan;100834.31;4932022;29;20032;-79
2022/08/26 02:10:53;;;;;;;14.45;10.98;;;;;;;17.69;nan;100826.34;4929480;29;20047;-79
2022/08/26 02:13:21;;;;;;;13.25;10.93;;;;;;;17.70;nan;100825.41;4930895;29;20420;-79
2022/08/26 02:15:48;;;;;;;15.00;11.25;;;;;;;17.68;nan;100824.59;4928661;29;20053;-79
2022/08/26 02:18:15;;;;;;;11.73;9.98;;;;;;;17.64;nan;100825.66;4931094;29;20061;-79
2022/08/26 02:20:42;;;;;;;12.73;10.43;;;;;;;17.59;nan;100830.38;4920204;29;20043;-79
2022/08/26 02:23:09;;;;;;;15.23;11.05;;;;;;;17.55;nan;100823.44;4927225;29;20042;-79
2022/08/26 02:25:52;;;;;;;13.50;9.98;;;;;;;17.52;nan;100829.78;4914027;29;20639;-79
2022/08/26 02:28:19;;;;;;;11.75;9.75;;;;;;;17.49;nan;100826.38;4929938;29;20047;-79
2022/08/26 02:30:46;;;;;;;16.33;11.32;;;;;;;17.48;nan;100822.84;4926305;29;20054;-79
2022/08/26 02:33:13;;;;;;;11.95;10.57;;;;;;;17.47;nan;100825.59;4911381;29;20040;-80
2022/08/26 02:35:40;;;;;;;15.38;10.70;;;;;;;17.46;nan;100824.72;4924992;29;20054;-79
2022/08/26 02:38:09;;;;;;;14.07;10.32;;;;;;;17.45;nan;100821.19;4915517;29;20054;-79
2022/08/26 02:40:39;;;;;;;15.30;11.32;;;;;;;17.46;nan;100819.38;4909491;29;20035;-79
2022/08/26 02:43:07;;;;;;;13.15;10.88;;;;;;;17.46;nan;100811.38;4931648;29;20047;-80
2022/08/26 02:45:34;;;;;;;12.25;9.73;;;;;;;17.43;nan;100815.06;4926533;29;20517;-80
2022/08/26 02:48:09;;;;;;;13.38;10.50;;;;;;;17.42;nan;100807.13;4928853;29;20043;-79
2022/08/26 02:50:37;;;;;;;13.00;11.05;;;;;;;17.40;nan;100812.53;4934171;29;20035;-79
2022/08/26 02:53:04;;;;;;;14.32;10.75;;;;;;;17.40;nan;100809.88;4919082;29;20044;-79
2022/08/26 02:55:31;;;;;;;15.00;11.30;;;;;;;17.41;nan;100808.06;4932454;29;20601;-79
2022/08/26 02:57:58;;;;;;;16.60;11.25;;;;;;;17.42;nan;100807.13;4934554;29;20044;-80
2022/08/26 03:00:26;;;;;;;13.35;10.55;;;;;;;17.40;nan;100806.31;4911284;29;20051;-80
2022/08/26 03:02:53;;;;;;;12.57;11.00;;;;;;;17.38;nan;100810.84;4927318;29;20663;-80
2022/08/26 03:05:21;;;;;;;14.45;11.07;;;;;;;17.35;nan;100806.53;4928873;29;20032;-78
2022/08/26 03:07:48;;;;;;;12.10;9.75;;;;;;;17.35;nan;100803.00;4928019;29;20045;-79
2022/08/26 03:10:15;;;;;;;15.05;11.23;;;;;;;17.33;nan;100800.41;4915197;29;20052;-80
2022/08/26 03:12:44;;;;;;;14.60;11.50;;;;;;;17.30;nan;100797.84;4933390;29;20206;-81
2022/08/26 03:15:15;;;;;;;11.95;10.13;;;;;;;17.28;nan;100797.06;4933319;29;20039;-80
2022/08/26 03:17:46;;;;;;;15.45;10.98;;;;;;;17.26;nan;100804.28;4904734;29;20524;-79
2022/08/26 03:20:13;;;;;;;12.88;10.38;;;;;;;17.22;nan;100800.00;4933832;29;20505;-79
2022/08/26 03:22:41;;;;;;;13.05;11.25;;;;;;;17.21;nan;100790.28;4931796;29;20046;-79
2022/08/26 03:25:10;;;;;;;11.93;10.60;;;;;;;17.20;nan;100798.34;4915581;29;20039;-79
2022/08/26 03:27:37;;;;;;;12.07;10.60;;;;;;;17.19;nan;100799.28;4932727;29;20485;-79
2022/08/26 03:32:51;;;;;;;14.45;11.25;;;;;;;17.16;nan;100789.63;4931577;29;20515;-81
2022/08/26 03:35:18;;;;;;;14.57;11.82;;;;;;;17.15;nan;100794.09;4915450;29;20050;-79
2022/08/26 03:37:46;;;;;;;12.10;10.80;;;;;;;17.15;nan;100785.19;4931401;29;20035;-80
2022/08/26 03:40:13;;;;;;;15.55;11.32;;;;;;;17.16;nan;100789.63;4914010;29;20048;-80
2022/08/26 03:42:40;;;;;;;16.80;11.30;;;;;;;17.13;nan;100792.41;4907813;29;20046;-79
2022/08/26 03:45:09;;;;;;;12.82;10.02;;;;;;;17.09;nan;100783.69;4910500;29;20036;-79
2022/08/26 03:47:37;;;;;;;13.80;11.43;;;;;;;17.08;nan;100779.31;4930667;29;20040;-80
2022/08/26 03:50:06;;;;;;;14.27;12.05;;;;;;;17.09;nan;100793.50;4933722;29;20065;-80
2022/08/26 03:52:33;;;;;;;15.27;10.98;;;;;;;17.10;nan;100784.56;4932046;29;20054;-80
2022/08/26 03:55:01;;;;;;;18.73;12.38;;;;;;;17.13;nan;100800.44;4926927;29;20675;-80
2022/08/26 03:57:28;;;;;;;12.93;10.45;;;;;;;17.10;nan;100787.22;4906938;29;20044;-79
2022/08/26 03:59:55;;;;;;;13.65;11.32;;;;;;;17.14;nan;100786.16;4931411;29;20040;-79
2022/08/26 04:02:22;;;;;;;14.98;11.77;;;;;;;17.20;nan;100785.00;4916206;29;20043;-79
2022/08/26 04:04:49;;;;;;;14.57;11.82;;;;;;;17.21;nan;100787.59;4929956;29;20036;-79
2022/08/26 04:07:17;;;;;;;13.98;12.45;;;;;;;17.26;nan;100796.28;4916946;29;20044;-81
2022/08/26 04:09:43;;;;;;;13.27;11.80;;;;;;;17.26;nan;100788.28;4934585;29;20043;-79
2022/08/26 04:12:11;;;;;;;14.95;11.48;;;;;;;17.28;nan;100789.06;4931134;29;20046;-79
2022/08/26 04:14:41;;;;;;;13.98;11.63;;;;;;;17.34;nan;100783.44;4928457;29;20035;-80
2022/08/26 04:17:08;;;;;;;16.02;12.98;;;;;;;17.37;nan;100785.97;4919642;29;20036;-78
2022/08/26 04:19:35;;;;;;;17.15;13.70;;;;;;;17.41;nan;100787.56;4924639;29;20040;-78
2022/08/26 04:22:02;;;;;;;17.13;12.27;;;;;;;17.47;nan;100788.19;4916103;29;20047;-78
2022/08/26 04:24:30;;;;;;;14.93;12.13;;;;;;;17.51;nan;100781.78;4930002;29;20402;-78
2022/08/26 04:26:56;;;;;;;16.10;12.55;;;;;;;17.52;nan;100776.38;4915832;29;20058;-78
2022/08/26 04:29:25;;;;;;;17.02;12.75;;;;;;;17.56;nan;100783.28;4917826;29;20044;-79
2022/08/26 04:31:55;;;;;;;17.08;13.48;;;;;;;17.63;nan;100773.19;4917352;29;20055;-80
2022/08/26 04:34:24;;;;;;;15.02;12.38;;;;;;;17.68;nan;100772.03;4915504;29;20048;-79
2022/08/26 04:36:53;;;;;;;16.95;13.10;;;;;;;17.68;nan;100777.38;4914450;29;20062;-80
2022/08/26 04:39:20;;;;;;;16.63;13.55;;;;;;;17.70;nan;100767.50;4934326;29;20044;-80
2022/08/26 04:41:49;;;;;;;21.45;12.95;;;;;;;17.72;nan;100776.31;4935069;29;20427;-81
2022/08/26 04:44:16;;;;;;;13.82;11.43;;;;;;;17.72;nan;100770.09;4938018;29;20038;-81
2022/08/26 04:46:43;;;;;;;14.52;12.40;;;;;;;17.74;nan;100770.91;4911973;29;20040;-80
2022/08/26 04:49:11;;;;;;;14.75;12.27;;;;;;;17.76;nan;100769.03;4928228;29;20050;-80
2022/08/26 04:51:38;;;;;;;17.15;13.00;;;;;;;17.82;nan;100768.69;4921007;29;20058;-81
2022/08/26 04:54:06;;;;;;;14.27;12.25;;;;;;;17.83;nan;100774.94;4920645;29;20036;-80
2022/08/26 04:56:40;;;;;;;16.30;13.32;;;;;;;17.89;nan;100769.28;4899830;29;20043;-81
2022/08/26 04:59:11;;;;;;;17.40;13.10;;;;;;;17.94;nan;100765.44;4938173;29;20054;-81
2022/08/26 05:01:47;;;;;;;16.23;11.93;;;;;;;17.99;nan;100767.88;4935509;29;20532;-81
2022/08/26 05:04:16;;;;;;;15.98;12.57;;;;;;;18.05;nan;100772.06;4937396;29;20044;-81
2022/08/26 05:06:45;;;;;;;18.48;13.60;;;;;;;18.09;nan;100777.19;4921017;29;20040;-80
2022/08/26 05:09:13;;;;;;;17.27;12.90;;;;;;;18.14;nan;100776.94;4936994;29;20301;-80
2022/08/26 05:11:41;;;;;;;19.67;12.90;;;;;;;18.19;nan;100777.59;4920138;29;20039;-80
2022/08/26 05:14:08;;;;;;;13.65;12.18;;;;;;;18.24;nan;100779.09;4937734;29;20038;-79
2022/08/26 05:16:36;;;;;;;13.88;12.00;;;;;;;18.33;nan;100776.88;4936660;29;20658;-79
2022/08/26 05:19:04;;;;;;;12.15;10.85;;;;;;;18.39;nan;100779.25;4928863;29;20565;-80
2022/08/26 05:21:31;;;;;;;16.60;13.07;;;;;;;18.53;nan;100777.59;4937552;29;20050;-80
2022/08/26 05:23:59;;;;;;;14.05;12.27;;;;;;;18.58;nan;100780.03;4938405;29;20474;-80
2022/08/26 05:26:28;;;;;;;16.35;12.05;;;;;;;18.62;nan;100789.66;4936365;29;20178;-80
2022/08/26 05:28:55;;;;;;;15.27;12.10;;;;;;;18.69;nan;100787.56;4939389;29;20123;-80
2022/08/26 05:31:28;;;;;;;19.95;13.60;;;;;;;18.80;nan;100791.38;4922313;29;20049;-80
2022/08/26 05:33:56;;;;;;;15.27;11.97;;;;;;;18.87;nan;100786.59;4934867;29;20111;-79
2022/08/26 05:36:26;;;;;;;12.60;11.27;;;;;;;18.96;nan;100787.91;4930361;29;20047;-79
2022/08/26 05:38:54;;;;;;;16.83;12.88;;;;;;;19.14;nan;100800.31;4936225;29;20122;-80
2022/08/26 05:41:27;;;;;;;16.08;12.90;;;;;;;19.17;nan;100792.13;4936249;29;20100;-80
2022/08/26 05:44:02;;;;;;;19.40;12.45;;;;;;;19.27;nan;100788.00;4934134;29;20462;-79
2022/08/26 05:46:29;;;;;;;13.35;11.98;;;;;;;19.37;nan;100794.56;4926963;29;20656;-79
2022/08/26 05:48:57;;;;;;;16.92;11.95;;;;;;;19.58;nan;100789.88;4931355;29;20039;-79
2022/08/26 05:51:24;;;;;;;20.23;13.80;;;;;;;19.89;nan;100785.47;4912800;29;20410;-79
2022/08/26 05:53:52;;;;;;;15.45;11.45;;;;;;;19.92;nan;100794.19;4925054;29;20620;-79
2022/08/26 05:56:23;;;;;;;12.27;10.63;;;;;;;19.95;nan;100790.47;4929298;29;20046;-79
2022/08/26 05:58:51;;;;;;;14.27;11.88;;;;;;;20.03;nan;100790.03;4929700;29;20043;-78
2022/08/26 06:01:24;;;;;;;17.65;11.88;;;;;;;20.16;nan;100783.00;4921394;29;20046;-79
2022/08/26 06:03:54;;;;;;;17.55;13.38;;;;;;;20.35;nan;100785.50;4916703;29;20059;-79
2022/08/26 06:06:34;;;;;;;16.50;11.77;;;;;;;20.44;nan;100785.84;4914737;29;20048;-78
2022/08/26 06:09:03;;;;;;;14.68;11.48;;;;;;;20.54;nan;100793.34;4926709;29;20055;-79
2022/08/26 06:11:32;;;;;;;18.42;11.68;;;;;;;20.76;nan;100786.56;4929322;29;20046;-78
2022/08/26 06:14:02;;;;;;;16.27;12.75;;;;;;;21.13;nan;100786.13;4915648;29;20040;-79
2022/08/26 06:16:33;;;;;;;13.25;10.77;;;;;;;21.41;nan;100787.97;4916702;29;20051;-78
2022/08/26 06:19:02;;;;;;;12.55;10.32;;;;;;;21.63;nan;100791.88;4910852;29;21400;-78
2022/08/26 06:21:31;;;;;;;14.25;11.15;;;;;;;21.71;nan;100785.16;4931292;29;20054;-80
2022/08/26 06:27:00;;;;;;;17.70;11.10;;;;;;;22.37;nan;100787.94;4913227;29;20036;-79
2022/08/26 06:29:29;;;;;;;13.95;10.13;;;;;;;23.55;nan;100780.56;4907941;29;20046;-79
2022/08/26 06:31:57;;;;;;;16.17;9.77;;;;;;;24.67;nan;100778.44;4930428;29;20044;-79
2022/08/26 06:34:24;;;;;;;15.55;11.02;;;;;;;25.44;nan;100770.56;4931946;29;20043;-79
2022/08/26 06:36:57;;;;;;;15.57;9.45;;;;;;;26.26;nan;100778.28;4930170;29;20521;-79
2022/08/26 06:39:24;;;;;;;14.48;9.13;;;;;;;26.63;nan;100779.59;4927690;29;20039;-78
2022/08/26 06:41:51;;;;;;;18.58;9.93;;;;;;;27.12;nan;100772.66;4935293;29;20050;-78
2022/08/26 06:44:19;;;;;;;20.20;10.05;;;;;;;27.02;nan;100776.28;4935583;29;20055;-78
2022/08/26 06:46:45;;;;;;;12.00;8.68;;;;;;;27.39;nan;100785.63;5002204;23;20038;-78
2022/08/26 06:49:16;;;;;;;18.80;10.73;;;;;;;26.90;nan;100776.34;4933236;29;20051;-78
2022/08/26 06:51:43;;;;;;;13.52;9.00;;;;;;;26.64;nan;100777.75;4929466;29;20039;-78
2022/08/26 06:54:10;;;;;;;12.15;8.35;;;;;;;26.87;nan;100768.50;4932038;29;20421;-78
2022/08/26 06:56:42;;;;;;;12.13;9.30;;;;;;;26.77;nan;100778.41;4930635;29;20501;-78
2022/08/26 06:59:10;;;;;;;12.70;9.23;;;;;;;26.59;nan;100778.16;4948732;28;20043;-78
2022/08/26 07:01:43;;;;;;;13.90;10.85;;;;;;;26.59;nan;100777.28;4931529;29;20046;-78
2022/08/26 07:04:13;;;;;;;12.70;9.07;;;;;;;26.56;nan;100777.53;4931642;29;20051;-78
2022/08/26 07:06:45;;;;;;;16.70;10.18;;;;;;;26.49;nan;100785.34;4932646;29;20039;-78
2022/08/26 07:09:12;;;;;;;14.52;8.95;;;;;;;26.51;nan;100777.09;4931011;29;20048;-78
2022/08/26 07:11:40;;;;;;;14.27;10.05;;;;;;;26.63;nan;100778.72;4929740;29;20040;-78
2022/08/26 07:14:07;;;;;;;15.20;9.50;;;;;;;26.82;nan;100772.56;4931947;29;20046;-78
2022/08/26 07:16:35;;;;;;;17.02;9.88;;;;;;;26.71;nan;100773.50;4931162;29;20035;-78
2022/08/26 07:19:03;;;;;;;12.15;8.93;;;;;;;26.86;nan;100779.47;4931034;29;20673;-76
2022/08/26 07:21:40;;;;;;;15.40;9.68;;;;;;;27.13;nan;100771.66;4930410;29;20515;-77
2022/08/26 07:24:09;;;;;;;11.68;9.18;;;;;;;27.39;nan;100771.19;4929913;29;20036;-77
2022/08/26 07:26:38;;;;;;;12.02;9.07;;;;;;;27.56;nan;100775.97;4919266;29;20036;-77
2022/08/26 07:29:11;;;;;;;14.75;9.10;;;;;;;27.51;nan;100772.81;4914805;29;20043;-77
2022/08/26 07:31:40;;;;;;;13.93;9.15;;;;;;;27.54;nan;100774.41;4924475;29;20046;-77
2022/08/26 07:34:09;;;;;;;14.38;9.32;;;;;;;27.63;nan;100770.84;4930888;29;20070;-78
2022/08/26 07:36:36;;;;;;;16.20;9.50;;;;;;;27.72;nan;100770.91;4919504;29;20038;-77
2022/08/26 07:39:05;;;;;;;13.48;8.45;;;;;;;27.77;nan;100762.34;4935668;29;20036;-78
2022/08/26 07:41:32;;;;;;;15.63;8.75;;;;;;;27.82;nan;100760.06;4934276;29;20039;-77
2022/08/26 07:43:58;;;;;;;14.00;9.10;;;;;;;27.82;nan;100765.50;4950246;29;20386;-77
2022/08/26 07:46:25;;;;;;;12.18;8.63;;;;;;;27.90;nan;100762.94;4940054;29;20046;-77
2022/08/26 07:48:56;;;;;;;15.32;9.18;;;;;;;27.66;nan;100766.06;4919851;29;20131;-77
2022/08/26 07:51:23;;;;;;;10.73;8.38;;;;;;;27.77;nan;100759.63;4915976;29;20044;-76
2022/08/26 07:53:51;;;;;;;12.40;8.50;;;;;;;27.91;nan;100761.06;4934524;29;20039;-77
2022/08/26 07:56:22;;;;;;;13.90;9.85;;;;;;;27.98;nan;100754.94;4930039;29;20039;-77
2022/08/26 07:58:50;;;;;;;11.85;8.45;;;;;;;27.88;nan;100764.94;4926327;29;20514;-77
2022/08/26 08:01:22;;;;;;;15.43;8.48;;;;;;;27.96;nan;100765.09;4916004;29;20046;-77
2022/08/26 08:03:50;;;;;;;13.98;8.32;;;;;;;28.03;nan;100760.81;4928118;29;20529;-77
2022/08/26 08:06:19;;;;;;;16.02;8.80;;;;;;;28.04;nan;100761.69;4931283;29;20028;-77
2022/08/26 08:08:46;;;;;;;15.25;8.15;;;;;;;28.12;nan;100760.97;4934773;29;20048;-78
2022/08/26 08:11:13;;;;;;;12.80;7.80;;;;;;;28.14;nan;100767.09;4934293;29;20039;-77
2022/08/26 08:13:40;;;;;;;16.23;9.18;;;;;;;28.13;nan;100755.38;4916506;29;20051;-77
2022/08/26 08:16:07;;;;;;;13.23;8.10;;;;;;;28.16;nan;100756.94;4927132;29;20046;-77
2022/08/26 08:18:39;;;;;;;12.00;7.95;;;;;;;27.97;nan;100753.22;4930617;29;20426;-77
2022/08/26 08:21:06;;;;;;;16.63;8.15;;;;;;;27.97;nan;100747.78;4932356;29;20155;-77
2022/08/26 08:23:51;;;;;;;12.55;8.18;;;;;;;28.03;nan;100751.81;4934464;29;20044;-77
2022/08/26 08:26:18;;;;;;;16.67;9.05;;;;;;;28.02;nan;100747.38;4933871;29;20048;-76
2022/08/26 08:28:45;;;;;;;15.95;9.10;;;;;;;27.70;nan;100743.03;4933552;29;20045;-77
2022/08/26 08:31:20;;;;;;;15.02;7.32;;;;;;;27.78;nan;100742.34;4946949;29;20050;-77
2022/08/26 08:34:07;;;;;;;18.25;7.80;;;;;;;27.86;nan;100738.94;4946385;29;20051;-77
2022/08/26 08:36:34;;;;;;;17.67;8.02;;;;;;;27.97;nan;100734.22;4933260;29;20046;-77
2022/08/26 08:39:02;;;;;;;18.02;7.90;;;;;;;27.98;nan;100733.22;4915479;29;20036;-77
2022/08/26 08:42:03;;;;;;;17.67;8.13;;;;;;;28.21;nan;100732.94;4947154;29;20503;-77
2022/08/26 08:44:31;;;;;;;14.65;8.20;;;;;;;28.31;nan;100722.97;4944741;29;20040;-77
2022/08/26 08:47:02;;;;;;;15.82;6.85;;;;;;;28.37;nan;100729.69;4932297;29;20032;-77
2022/08/26 08:49:31;;;;;;;13.18;6.88;;;;;;;28.38;nan;100717.81;4932939;29;20042;-77
2022/08/26 08:52:02;;;;;;;17.27;7.70;;;;;;;28.40;nan;100718.50;4908638;29;20048;-77
2022/08/26 08:54:30;;;;;;;34.55;9.25;;;;;;;28.46;nan;100707.94;4915354;29;20074;-77
2022/08/26 08:57:09;;;;;;;22.38;7.20;;;;;;;28.39;nan;100711.38;4953222;29;20419;-76
2022/08/26 08:59:41;;;;;;;19.00;6.70;;;;;;;28.44;nan;100711.81;4936411;29;20050;-78
2022/08/26 09:02:24;;;;;;;14.75;6.65;;;;;;;28.81;nan;100704.53;4947139;28;20044;-77
2022/08/26 09:05:06;;;;;;;14.88;7.05;;;;;;;28.80;nan;100707.41;4933272;29;20031;-77
2022/08/26 09:07:37;;;;;;;14.02;6.35;;;;;;;29.19;nan;100705.44;4922327;29;20059;-77
2022/08/26 09:10:13;;;;;;;16.02;7.57;;;;;;;29.65;nan;100703.63;4915723;29;20062;-77
2022/08/26 09:12:41;;;;;;;12.27;6.80;;;;;;;30.03;nan;100705.22;4923101;29;20040;-77
2022/08/26 09:15:22;;;;;;;14.40;7.63;;;;;;;30.27;nan;100697.28;4935714;29;20038;-77
2022/08/26 09:18:12;;;;;;;20.08;7.65;;;;;;;30.20;nan;100706.25;4944282;28;20042;-77
2022/08/26 09:20:47;;;;;;;17.55;7.78;;;;;;;30.25;nan;100702.03;4933399;29;20040;-78
2022/08/26 09:23:14;;;;;;;18.80;7.72;;;;;;;30.29;nan;100699.84;4935258;29;20053;-77
2022/08/26 09:25:47;;;;;;;15.35;7.05;;;;;;;30.34;nan;100693.91;4931571;29;20042;-77
2022/08/26 09:28:17;;;;;;;11.45;7.90;;;;;;;30.34;nan;100693.91;4919026;29;20048;-77
2022/08/26 09:30:46;;;;;;;12.65;7.63;;;;;;;30.38;nan;100690.72;4933637;29;20609;-77
2022/08/26 09:33:16;;;;;;;17.63;7.93;;;;;;;30.83;nan;100687.81;4934524;29;20563;-77
2022/08/26 09:35:47;;;;;;;15.05;7.63;;;;;;;30.91;nan;100691.59;4931089;29;20921;-78
2022/08/26 09:38:32;;;;;;;13.70;7.07;;;;;;;30.90;nan;100689.91;4930789;29;20047;-78
2022/08/26 09:41:04;;;;;;;13.10;7.22;;;;;;;31.17;nan;100697.00;4930835;29;20043;-77
2022/08/26 09:43:31;;;;;;;13.27;6.78;;;;;;;31.43;nan;100691.50;4929470;29;20036;-78
2022/08/26 09:46:22;;;;;;;31.63;8.77;;;;;;;31.44;nan;100687.75;4931961;29;20043;-77
2022/08/26 09:48:49;;;;;;;13.75;6.50;;;;;;;30.98;nan;100684.47;4931873;29;20054;-78
2022/08/26 09:51:23;;;;;;;18.15;7.93;;;;;;;31.08;nan;100677.88;4935794;29;20409;-77
2022/08/26 09:53:58;;;;;;;16.35;7.68;;;;;;;31.22;nan;100684.63;4932922;29;20050;-79
2022/08/26 09:56:33;;;;;;;16.42;7.53;;;;;;;31.19;nan;100684.03;4913812;29;20046;-78
2022/08/26 09:59:01;;;;;;;13.32;7.47;;;;;;;31.17;nan;100677.91;4925363;29;20043;-77
2022/08/26 10:01:31;;;;;;;16.02;6.30;;;;;;;31.10;nan;100674.97;4932182;29;20064;-77
2022/08/26 10:04:11;;;;;;;11.70;6.45;;;;;;;31.36;nan;100670.34;4935801;29;20043;-77
2022/08/26 10:06:53;;;;;;;14.27;6.75;;;;;;;31.33;nan;100670.66;4931865;29;20048;-77
2022/08/26 10:09:21;;;;;;;19.58;6.95;;;;;;;31.30;nan;100671.00;4939301;29;20052;-78
2022/08/26 10:11:54;;;;;;;13.82;6.28;;;;;;;31.69;nan;100662.22;4929896;29;20120;-77
2022/08/26 10:14:23;;;;;;;;;;;;;;;31.68;nan;100660.50;4935159;29;20090;-78
2022/08/26 10:17:04;;;;;;;14.43;6.80;;;;;;;31.94;nan;100647.59;4931067;29;19931;-79
2022/08/26 10:19:38;;;;;;;18.23;6.57;;;;;;;31.98;nan;100636.34;4933956;29;20082;-77
2022/08/26 10:22:24;;;;;;;18.02;6.95;;;;;;;31.40;nan;100631.78;4930491;29;20501;-77
2022/08/26 10:24:55;;;;;;;19.45;7.22;;;;;;;31.83;nan;100623.34;4929853;29;20039;-77
2022/08/26 10:27:33;;;;;;;11.15;6.88;;;;;;;32.22;nan;100622.66;4925219;29;20038;-77
2022/08/26 10:30:07;;;;;;;17.83;8.10;;;;;;;32.54;nan;100610.84;4936107;29;20040;-78
2022/08/26 10:32:40;;;;;;;17.15;7.13;;;;;;;32.61;nan;100614.56;4929391;29;20044;-78
2022/08/26 10:35:12;;;;;;;20.02;7.50;;;;;;;32.72;nan;100614.19;4929247;29;20052;-78
2022/08/26 10:37:48;;;;;;;18.38;6.25;;;;;;;32.39;nan;100602.50;4926456;29;20036;-78
2022/08/26 10:40:48;;;;;;;18.73;7.28;;;;;;;32.59;nan;100596.63;4914795;29;20047;-78
2022/08/26 10:43:26;;;;;;;23.17;7.32;;;;;;;32.62;nan;100590.78;4914130;29;20054;-79
2022/08/26 10:45:58;;;;;;;13.85;6.57;;;;;;;32.76;nan;100592.78;4943449;29;20043;-78
2022/08/26 10:48:33;;;;;;;14.73;5.97;;;;;;;32.70;nan;100582.56;4930657;29;20036;-78
2022/08/26 10:51:02;;;;;;;14.65;7.13;;;;;;;31.88;nan;100584.59;4929201;29;20661;-78
2022/08/26 10:53:35;;;;;;;15.07;6.38;;;;;;;32.01;nan;100581.31;4929661;29;20400;-78
2022/08/26 10:56:17;;;;;;;25.20;7.18;;;;;;;32.09;nan;100575.84;4925764;29;20031;-78
2022/08/26 10:58:58;;;;;;;21.67;7.35;;;;;;;31.81;nan;100584.41;4928711;29;20048;-79
2022/08/26 11:01:44;;;;;;;19.10;8.25;;;;;;;31.70;nan;100579.28;4928893;29;20047;-79
2022/08/26 11:04:32;;;;;;;16.83;6.88;;;;;;;31.86;nan;100572.97;4926480;29;20052;-78
2022/08/26 11:07:35;;;;;;;21.35;8.50;;;;;;;31.60;nan;100553.97;4928601;29;20412;-78
2022/08/26 11:10:22;;;;;;;17.63;7.57;;;;;;;31.85;nan;100557.59;4932982;29;20501;-78
2022/08/26 11:13:05;;;;;;;14.25;7.20;;;;;;;31.98;nan;100551.63;4927044;29;20055;-79
2022/08/26 11:15:35;;;;;;;16.25;7.82;;;;;;;32.20;nan;100549.03;4923181;29;20046;-80
2022/08/26 11:18:06;;;;;;;18.65;8.38;;;;;;;31.90;nan;100542.41;4930889;29;20437;-78
2022/08/26 11:20:43;;;;;;;16.77;8.40;;;;;;;32.48;nan;100535.81;4928437;29;20498;-78
2022/08/26 11:23:21;;;;;;;20.15;7.75;;;;;;;31.67;nan;100538.63;4927350;29;20044;-79
2022/08/26 11:26:00;;;;;;;19.70;8.65;;;;;;;31.62;nan;100528.22;4927704;29;20070;-79
2022/08/26 11:28:43;;;;;;;16.30;8.75;;;;;;;31.31;nan;100514.38;4924699;29;20044;-79
2022/08/26 11:31:25;;;;;;;19.70;8.55;;;;;;;31.23;nan;100503.47;4929759;29;20058;-79
2022/08/26 11:33:56;;;;;;;18.88;7.93;;;;;;;31.30;nan;100529.06;4931153;29;20044;-79
2022/08/26 11:36:40;;;;;;;20.15;8.27;;;;;;;31.19;nan;100512.94;4926781;29;20050;-79
2022/08/26 11:39:27;;;;;;;16.83;8.10;;;;;;;31.70;nan;100510.09;4930624;29;20500;-79
2022/08/26 11:41:58;;;;;;;20.13;8.60;;;;;;;32.06;nan;100491.50;4928720;29;20050;-79
2022/08/26 11:44:36;;;;;;;19.13;9.45;;;;;;;31.67;nan;100487.56;4932018;29;20036;-80
2022/08/26 11:47:03;;;;;;;12.30;8.57;;;;;;;31.64;nan;100479.75;4927684;29;20054;-78
2022/08/26 11:49:31;;;;;;;18.15;8.35;;;;;;;31.41;nan;100484.19;4926861;29;20035;-78
2022/08/26 11:52:17;;;;;;;18.70;9.10;;;;;;;31.27;nan;100471.19;4924655;29;20048;-78